Time;durP1;ratioP1;P1;durP2;ratioP2;P2;SDS_P1;SDS_P2;PMS_P1;PMS_P2;Temp;Humidity;BMP_temperature;BMP_pressure;BME280_temperature;BME280_humidity;BME280_pressure;Samples;Min_cycle;Max_cycle;Signal;HPM_P1;HPM_P2
2023/04/28 00:00:18;;;;;;;54.42;51.10;;;5.60;99.90;;;;;;5061488;28;20266;-65
2023/04/28 00:02:46;;;;;;;55.22;52.13;;;5.60;99.90;;;;;;5081894;28;20039;-66
2023/04/28 00:05:13;;;;;;;58.33;55.20;;;5.60;99.90;;;;;;5080997;28;20040;-65
2023/04/28 00:07:38;;;;;;;58.95;55.53;;;5.60;99.90;;;;;;5079331;28;20093;-66
2023/04/28 00:10:05;;;;;;;58.75;55.35;;;5.60;99.90;;;;;;5088334;28;20491;-65
2023/04/28 00:12:30;;;;;;;58.83;55.55;;;5.50;99.90;;;;;;5076018;28;20460;-65
2023/04/28 00:14:56;;;;;;;60.22;56.92;;;5.60;99.90;;;;;;5080480;28;20063;-65
2023/04/28 00:17:22;;;;;;;60.03;56.83;;;5.50;99.90;;;;;;5081932;28;20445;-65
2023/04/28 00:19:48;;;;;;;58.63;55.38;;;5.60;99.90;;;;;;5060205;28;20066;-65
2023/04/28 00:22:14;;;;;;;57.45;54.50;;;5.60;99.90;;;;;;5080218;28;20040;-65
2023/04/28 00:24:40;;;;;;;60.42;57.03;;;5.60;99.90;;;;;;5080001;28;20044;-65
2023/04/28 00:27:06;;;;;;;58.30;55.03;;;5.60;99.90;;;;;;5097318;28;20054;-65
2023/04/28 00:29:32;;;;;;;57.25;54.05;;;5.60;99.90;;;;;;5102011;28;20402;-65
2023/04/28 00:31:57;;;;;;;57.63;54.55;;;5.60;99.90;;;;;;5100337;28;20474;-65
2023/04/28 00:34:23;;;;;;;57.95;54.80;;;5.60;99.90;;;;;;5099630;28;20035;-65
2023/04/28 00:36:48;;;;;;;59.88;56.47;;;5.60;99.90;;;;;;5088621;28;20552;-65
2023/04/28 00:39:17;;;;;;;58.42;55.10;;;5.60;99.90;;;;;;5069185;28;20039;-65
2023/04/28 00:41:42;;;;;;;56.47;53.28;;;5.70;99.90;;;;;;5090645;28;20042;-65
2023/04/28 00:44:08;;;;;;;58.30;55.03;;;5.70;99.90;;;;;;5082249;28;20039;-65
2023/04/28 00:46:34;;;;;;;52.08;49.28;;;5.70;99.90;;;;;;5090229;27;20043;-65
2023/04/28 00:48:59;;;;;;;57.47;54.28;;;5.70;99.90;;;;;;5094144;28;20038;-65
2023/04/28 00:51:27;;;;;;;57.42;54.25;;;5.70;99.90;;;;;;5069597;28;20038;-65
2023/04/28 00:53:53;;;;;;;59.63;56.55;;;5.70;99.90;;;;;;5085952;28;20040;-65
2023/04/28 00:56:19;;;;;;;59.60;56.53;;;5.60;99.90;;;;;;5071389;28;20075;-65
2023/04/28 00:58:45;;;;;;;66.78;63.22;;;5.60;99.90;;;;;;5089967;28;20044;-65
2023/04/28 01:01:11;;;;;;;63.05;59.45;;;5.60;99.90;;;;;;5087809;28;20044;-65
2023/04/28 01:03:38;;;;;;;59.38;56.15;;;5.60;99.90;;;;;;5108431;28;20458;-65
2023/04/28 01:06:05;;;;;;;60.97;57.67;;;5.60;99.90;;;;;;5092029;28;20047;-65
2023/04/28 01:08:32;;;;;;;62.60;59.25;;;5.60;99.90;;;;;;5091118;28;20040;-65
2023/04/28 01:10:58;;;;;;;62.78;59.28;;;5.60;99.90;;;;;;5092014;28;20099;-65
2023/04/28 01:13:24;;;;;;;59.80;56.45;;;5.60;99.90;;;;;;5106847;28;20043;-65
2023/04/28 01:15:50;;;;;;;54.28;51.17;;;5.60;99.90;;;;;;5075171;28;20105;-65
2023/04/28 01:18:16;;;;;;;58.05;55.00;;;5.60;99.90;;;;;;5103299;28;20039;-65
2023/04/28 01:20:42;;;;;;;64.07;60.55;;;5.60;99.90;;;;;;5083013;28;20038;-65
2023/04/28 01:23:15;;;;;;;53.90;51.20;;;5.60;99.90;;;;;;5087235;28;20147;-65
2023/04/28 01:25:41;;;;;;;61.33;58.13;;;5.60;99.90;;;;;;5083810;28;20048;-65
2023/04/28 01:28:09;;;;;;;59.47;56.38;;;5.50;99.90;;;;;;5087987;28;20146;-65
2023/04/28 01:30:35;;;;;;;62.63;59.22;;;5.60;99.90;;;;;;5083146;28;20040;-65
2023/04/28 01:33:01;;;;;;;62.30;58.83;;;5.50;99.90;;;;;;5078538;28;20101;-65
2023/04/28 01:35:27;;;;;;;56.17;53.17;;;5.50;99.90;;;;;;5081789;28;20036;-65
2023/04/28 01:37:52;;;;;;;53.20;50.40;;;5.50;99.90;;;;;;5075306;28;20045;-66
2023/04/28 01:40:18;;;;;;;55.50;52.50;;;5.50;99.90;;;;;;5075679;28;20040;-65
2023/04/28 01:42:44;;;;;;;56.38;53.22;;;5.50;99.90;;;;;;5079506;28;20043;-65
2023/04/28 01:45:10;;;;;;;54.58;51.53;;;5.40;99.90;;;;;;5079697;28;20126;-65
2023/04/28 01:47:36;;;;;;;58.53;55.25;;;5.40;99.90;;;;;;5079923;28;20051;-65
2023/04/28 01:50:01;;;;;;;60.03;56.63;;;5.40;99.90;;;;;;5064855;28;20044;-65
2023/04/28 01:52:27;;;;;;;56.45;53.35;;;5.40;99.90;;;;;;5076976;28;20036;-65
2023/04/28 01:54:53;;;;;;;57.85;54.58;;;5.40;99.90;;;;;;5085220;28;20044;-65
2023/04/28 01:57:19;;;;;;;61.53;57.97;;;5.40;99.90;;;;;;5082765;28;20044;-65
2023/04/28 01:59:45;;;;;;;62.90;59.72;;;5.40;99.90;;;;;;5069216;28;20051;-65
2023/04/28 02:02:10;;;;;;;68.28;64.47;;;5.40;99.90;;;;;;5087173;28;20040;-65
2023/04/28 02:04:39;;;;;;;65.80;62.42;;;5.50;99.90;;;;;;5083840;28;20047;-65
2023/04/28 02:07:06;;;;;;;63.72;60.38;;;5.50;99.90;;;;;;5079148;28;20122;-65
2023/04/28 02:09:32;;;;;;;74.07;69.72;;;5.50;99.90;;;;;;5083631;28;20092;-65
2023/04/28 02:12:01;;;;;;;66.07;62.72;;;5.50;99.90;;;;;;5073682;28;20067;-65
2023/04/28 02:14:32;;;;;;;68.60;64.82;;;5.50;99.90;;;;;;5087244;28;20432;-65
2023/04/28 02:16:58;;;;;;;68.93;65.32;;;5.50;99.90;;;;;;5082917;28;20040;-65
2023/04/28 02:19:24;;;;;;;75.25;71.35;;;5.40;99.90;;;;;;5084127;28;20040;-65
2023/04/28 02:21:49;;;;;;;68.90;65.32;;;5.50;99.90;;;;;;5085415;28;20050;-65
2023/04/28 02:24:15;;;;;;;72.05;68.32;;;5.40;99.90;;;;;;5077494;28;20035;-65
2023/04/28 02:26:41;;;;;;;83.10;78.85;;;5.40;99.90;;;;;;5064179;28;20071;-65
2023/04/28 02:29:06;;;;;;;85.32;80.95;;;5.40;99.90;;;;;;5074636;28;20076;-65
2023/04/28 02:31:33;;;;;;;94.88;90.35;;;5.50;99.90;;;;;;5065947;28;20048;-65
2023/04/28 02:33:58;;;;;;;81.18;76.82;;;5.50;99.90;;;;;;5084543;28;20041;-65
2023/04/28 02:36:24;;;;;;;84.22;79.32;;;5.50;99.90;;;;;;5080275;28;20111;-65
2023/04/28 02:38:50;;;;;;;86.00;81.75;;;5.50;99.90;;;;;;5084281;28;20464;-65
2023/04/28 02:41:15;;;;;;;86.03;81.60;;;5.50;99.90;;;;;;5082148;28;20122;-65
2023/04/28 02:43:41;;;;;;;86.70;82.40;;;5.50;99.90;;;;;;5078112;28;20032;-65
2023/04/28 02:46:07;;;;;;;70.88;66.82;;;5.50;99.90;;;;;;5081299;28;20553;-66
2023/04/28 02:48:34;;;;;;;72.30;68.03;;;5.50;99.90;;;;;;5078912;28;20487;-65
2023/04/28 02:51:00;;;;;;;80.72;76.57;;;5.50;99.90;;;;;;5099873;28;20039;-65
2023/04/28 02:53:26;;;;;;;77.28;72.90;;;5.50;99.90;;;;;;5084839;28;20075;-65
2023/04/28 02:55:52;;;;;;;71.25;67.40;;;5.50;99.90;;;;;;5065767;28;20090;-65
2023/04/28 02:58:18;;;;;;;68.63;64.97;;;5.50;99.90;;;;;;5086573;28;20050;-65
2023/04/28 03:00:44;;;;;;;64.60;60.80;;;5.50;99.90;;;;;;5082328;28;20044;-65
2023/04/28 03:03:09;;;;;;;69.40;65.93;;;5.50;99.90;;;;;;5077354;28;20056;-65
2023/04/28 03:05:35;;;;;;;72.28;68.25;;;5.50;99.90;;;;;;5081637;28;20108;-65
2023/04/28 03:08:01;;;;;;;73.70;69.82;;;5.50;99.90;;;;;;5067046;28;20538;-65
2023/04/28 03:10:26;;;;;;;74.50;70.18;;;5.50;99.90;;;;;;5080639;28;20063;-65
2023/04/28 03:12:52;;;;;;;74.78;70.78;;;5.50;99.90;;;;;;5063250;28;20048;-65
2023/04/28 03:15:18;;;;;;;73.70;69.50;;;5.50;99.90;;;;;;5084868;28;20036;-65
2023/04/28 03:17:43;;;;;;;73.45;69.07;;;5.50;99.90;;;;;;5079501;28;20480;-65
2023/04/28 03:20:10;;;;;;;72.78;68.57;;;5.50;99.90;;;;;;5062542;28;20444;-65
2023/04/28 03:22:35;;;;;;;71.13;67.22;;;5.60;99.90;;;;;;5064185;28;20047;-65
2023/04/28 03:25:02;;;;;;;72.57;68.50;;;5.60;99.90;;;;;;5082676;28;20040;-65
2023/04/28 03:27:27;;;;;;;72.80;68.60;;;5.60;99.90;;;;;;5083854;28;20150;-65
2023/04/28 03:29:53;;;;;;;71.72;67.63;;;5.60;99.90;;;;;;5084960;28;20134;-65
2023/04/28 03:32:19;;;;;;;70.10;66.22;;;5.60;99.90;;;;;;5081057;28;20495;-65
2023/04/28 03:34:45;;;;;;;76.05;71.75;;;5.60;99.90;;;;;;5098987;28;20059;-65
2023/04/28 03:37:10;;;;;;;75.85;71.38;;;5.60;99.90;;;;;;5077975;28;20513;-65
2023/04/28 03:39:36;;;;;;;74.45;69.95;;;5.60;99.90;;;;;;5084403;28;20268;-65
2023/04/28 03:42:01;;;;;;;80.95;76.25;;;5.60;99.90;;;;;;5086300;28;20130;-65
2023/04/28 03:44:27;;;;;;;79.28;74.95;;;5.60;99.90;;;;;;5071268;28;20043;-65
2023/04/28 03:46:53;;;;;;;80.38;75.57;;;5.60;99.90;;;;;;5080905;28;20494;-65
2023/04/28 03:49:18;;;;;;;78.00;73.53;;;5.60;99.90;;;;;;5100759;28;20434;-65
2023/04/28 03:51:44;;;;;;;80.40;76.03;;;5.60;99.90;;;;;;5087245;28;20501;-65
2023/04/28 03:54:10;;;;;;;85.13;80.32;;;5.60;99.90;;;;;;5062095;28;20048;-65
2023/04/28 03:56:35;;;;;;;79.35;74.63;;;5.60;99.90;;;;;;5087914;28;20044;-65
2023/04/28 03:59:01;;;;;;;86.13;81.03;;;5.60;99.90;;;;;;5099657;28;20040;-65
2023/04/28 04:01:27;;;;;;;77.20;72.57;;;5.60;99.90;;;;;;5098028;28;20145;-65
2023/04/28 04:03:52;;;;;;;83.40;78.70;;;5.70;99.90;;;;;;5081408;28;20502;-65
2023/04/28 04:06:18;;;;;;;74.50;70.20;;;5.70;99.90;;;;;;5079641;28;20035;-65
2023/04/28 04:08:44;;;;;;;77.85;73.05;;;5.80;99.90;;;;;;5089422;28;20047;-65
2023/04/28 04:11:10;;;;;;;86.60;81.32;;;5.80;99.90;;;;;;5079777;28;20427;-65
2023/04/28 04:13:35;;;;;;;73.88;68.88;;;5.80;99.90;;;;;;5070014;28;20051;-65
2023/04/28 04:16:01;;;;;;;84.50;79.70;;;5.80;99.90;;;;;;5100242;28;20492;-66
2023/04/28 04:18:27;;;;;;;77.38;72.55;;;5.80;99.90;;;;;;5085996;28;20035;-65
2023/04/28 04:20:56;;;;;;;68.53;64.70;;;5.80;99.90;;;;;;5085004;28;20490;-66
2023/04/28 04:23:21;;;;;;;85.45;80.18;;;5.80;99.90;;;;;;5082292;28;20117;-65
2023/04/28 04:25:47;;;;;;;71.88;67.68;;;5.80;99.90;;;;;;5071967;28;20138;-65
2023/04/28 04:28:13;;;;;;;62.08;58.50;;;5.90;99.90;;;;;;5080272;28;20068;-66
2023/04/28 04:30:39;;;;;;;73.97;69.50;;;5.90;99.90;;;;;;5099049;28;20078;-65
2023/04/28 04:33:04;;;;;;;65.05;60.70;;;5.90;99.90;;;;;;5086157;28;20039;-65
2023/04/28 04:35:30;;;;;;;67.93;63.50;;;5.90;99.90;;;;;;5083211;28;20074;-65
2023/04/28 04:37:56;;;;;;;70.85;65.90;;;5.90;99.90;;;;;;5086197;28;20408;-66
2023/04/28 04:40:23;;;;;;;67.18;62.63;;;5.90;99.90;;;;;;5088837;28;20138;-65
2023/04/28 04:42:48;;;;;;;65.75;61.25;;;5.90;99.90;;;;;;5094890;28;20119;-65
2023/04/28 04:45:14;;;;;;;68.28;63.63;;;5.90;99.90;;;;;;5105461;28;20043;-65
2023/04/28 04:47:40;;;;;;;68.13;63.88;;;5.90;99.90;;;;;;5088533;28;20047;-65
2023/04/28 04:50:06;;;;;;;62.92;58.85;;;5.90;99.90;;;;;;5090059;28;20035;-65
2023/04/28 04:52:32;;;;;;;70.45;66.13;;;6.00;99.90;;;;;;5082123;28;20044;-65
2023/04/28 04:54:58;;;;;;;71.82;67.22;;;6.00;99.90;;;;;;5101630;28;20529;-65
2023/04/28 04:57:24;;;;;;;67.82;63.60;;;6.00;99.90;;;;;;5083870;28;20317;-65
2023/04/28 04:59:49;;;;;;;69.30;64.50;;;6.00;99.90;;;;;;5109074;27;20047;-65
2023/04/28 05:02:16;;;;;;;64.28;60.40;;;6.00;99.90;;;;;;5102475;28;20110;-65
2023/04/28 05:04:41;;;;;;;73.65;69.00;;;6.00;99.90;;;;;;5084408;28;20464;-65
2023/04/28 05:07:07;;;;;;;68.53;64.28;;;6.10;99.90;;;;;;5107610;28;20043;-65
2023/04/28 05:09:32;;;;;;;68.68;64.20;;;6.10;99.90;;;;;;5104819;28;20051;-65
2023/04/28 05:11:58;;;;;;;68.75;64.35;;;6.10;99.90;;;;;;5105477;27;20058;-65
2023/04/28 05:14:24;;;;;;;52.58;49.42;;;6.10;99.90;;;;;;5099933;28;20105;-65
2023/04/28 05:16:50;;;;;;;63.03;58.67;;;6.20;99.90;;;;;;5083031;28;20047;-66
2023/04/28 05:19:15;;;;;;;64.63;60.47;;;6.20;99.90;;;;;;5072954;28;20035;-65
2023/04/28 05:21:41;;;;;;;65.60;61.33;;;6.20;99.90;;;;;;5085465;28;20452;-65
2023/04/28 05:24:07;;;;;;;61.55;57.67;;;6.20;99.90;;;;;;5088032;28;20410;-65
2023/04/28 05:26:32;;;;;;;54.72;50.90;;;6.20;99.90;;;;;;5104921;28;20054;-66
2023/04/28 05:28:58;;;;;;;53.85;50.22;;;6.30;99.90;;;;;;5089909;28;20043;-66
2023/04/28 05:31:24;;;;;;;49.72;46.83;;;6.30;99.90;;;;;;5081904;28;20047;-65
2023/04/28 05:33:50;;;;;;;56.90;53.17;;;6.40;99.90;;;;;;5083999;28;20078;-66
2023/04/28 05:36:16;;;;;;;54.28;50.50;;;6.40;99.90;;;;;;5087824;28;20038;-65
2023/04/28 05:38:42;;;;;;;59.67;55.63;;;6.50;99.90;;;;;;5063125;28;20040;-65
2023/04/28 05:41:08;;;;;;;48.20;45.03;;;6.50;99.90;;;;;;5090706;28;20032;-65
2023/04/28 05:43:34;;;;;;;51.00;47.70;;;6.60;99.90;;;;;;5073253;28;20054;-65
2023/04/28 05:46:00;;;;;;;56.35;52.50;;;6.70;99.90;;;;;;5090876;28;20043;-65
2023/04/28 05:48:26;;;;;;;59.60;55.72;;;6.80;99.90;;;;;;5087750;28;20108;-65
2023/04/28 05:50:51;;;;;;;63.90;59.83;;;6.80;99.90;;;;;;5090810;28;20483;-66
2023/04/28 05:53:17;;;;;;;56.83;53.17;;;6.80;99.90;;;;;;5092197;28;20122;-66
2023/04/28 05:55:43;;;;;;;67.45;63.40;;;6.90;99.90;;;;;;5068840;28;20057;-65
2023/04/28 05:58:08;;;;;;;68.38;64.32;;;6.90;99.90;;;;;;5091124;28;20054;-65
2023/04/28 06:00:34;;;;;;;71.60;67.15;;;6.80;99.90;;;;;;5091130;28;20032;-65
2023/04/28 06:03:00;;;;;;;67.95;63.83;;;6.90;99.90;;;;;;5085405;28;20131;-65
2023/04/28 06:05:26;;;;;;;71.70;67.30;;;6.90;99.90;;;;;;5088255;28;20039;-65
2023/04/28 06:07:52;;;;;;;68.03;64.13;;;6.90;99.90;;;;;;5090679;28;20047;-65
2023/04/28 06:10:19;;;;;;;67.03;63.00;;;6.90;99.90;;;;;;5089176;28;20059;-66
2023/04/28 06:12:44;;;;;;;75.00;70.28;;;6.90;99.90;;;;;;5104813;28;20085;-65
2023/04/28 06:15:10;;;;;;;72.50;68.15;;;7.00;99.90;;;;;;5083825;28;20032;-66
2023/04/28 06:17:38;;;;;;;71.05;66.82;;;7.00;99.90;;;;;;5088453;28;20047;-66
2023/04/28 06:20:05;;;;;;;72.75;68.55;;;7.00;99.90;;;;;;5091255;28;20048;-66
2023/04/28 06:22:31;;;;;;;78.93;74.43;;;7.10;99.90;;;;;;5085685;28;20043;-65
2023/04/28 06:24:56;;;;;;;80.95;76.20;;;7.10;99.90;;;;;;5081964;28;20081;-65
2023/04/28 06:27:22;;;;;;;78.85;74.35;;;7.20;99.90;;;;;;5083008;28;20052;-65
2023/04/28 06:29:47;;;;;;;81.55;76.57;;;7.30;99.90;;;;;;5086928;28;20093;-65
2023/04/28 06:32:13;;;;;;;77.35;73.13;;;7.40;99.90;;;;;;5060034;28;20556;-66
2023/04/28 06:34:39;;;;;;;81.60;77.10;;;7.50;99.90;;;;;;5085324;28;20596;-66
2023/04/28 06:37:04;;;;;;;89.75;84.93;;;7.50;99.90;;;;;;5082464;28;20044;-66
2023/04/28 06:39:30;;;;;;;88.00;83.38;;;7.50;99.90;;;;;;5064552;28;20059;-66
2023/04/28 06:41:56;;;;;;;90.97;85.88;;;7.60;99.90;;;;;;5081924;28;20510;-65
2023/04/28 06:44:22;;;;;;;97.57;92.65;;;7.70;99.90;;;;;;5087276;28;20356;-65
2023/04/28 06:46:47;;;;;;;96.65;91.47;;;7.70;99.90;;;;;;5065676;28;20035;-66
2023/04/28 06:49:13;;;;;;;97.18;92.05;;;7.80;99.90;;;;;;5086294;28;20044;-65
2023/04/28 06:51:39;;;;;;;93.90;89.20;;;8.00;99.90;;;;;;5068829;28;20027;-65
2023/04/28 06:54:04;;;;;;;96.75;91.88;;;8.00;99.90;;;;;;5068964;28;20119;-65
2023/04/28 06:56:30;;;;;;;95.60;90.80;;;8.10;99.90;;;;;;5067094;28;20532;-65
2023/04/28 06:58:56;;;;;;;81.03;76.75;;;8.10;99.90;;;;;;5086843;28;20040;-66
2023/04/28 07:01:21;;;;;;;93.22;88.30;;;8.20;99.90;;;;;;5085918;28;20028;-65
2023/04/28 07:03:47;;;;;;;87.85;83.28;;;8.30;99.90;;;;;;5077624;28;20037;-65
2023/04/28 07:06:13;;;;;;;96.63;91.93;;;8.40;99.90;;;;;;5086772;28;20112;-66
2023/04/28 07:08:39;;;;;;;83.78;79.45;;;8.40;99.90;;;;;;5086271;28;20052;-66
2023/04/28 07:11:05;;;;;;;71.43;67.43;;;8.50;99.90;;;;;;5086388;28;20040;-66
2023/04/28 07:13:31;;;;;;;99.72;94.57;;;8.50;99.90;;;;;;5088473;28;20050;-66
2023/04/28 07:15:57;;;;;;;82.90;78.35;;;8.60;99.90;;;;;;5084853;28;20043;-66
2023/04/28 07:18:23;;;;;;;82.95;78.32;;;8.60;99.90;;;;;;5086356;28;20055;-65
2023/04/28 07:20:50;;;;;;;86.57;82.15;;;8.60;99.90;;;;;;5081030;28;20031;-65
2023/04/28 07:23:15;;;;;;;94.15;89.32;;;8.60;99.90;;;;;;5088722;28;20047;-66
2023/04/28 07:25:41;;;;;;;90.13;85.45;;;8.50;99.90;;;;;;5084040;28;20051;-65
2023/04/28 07:28:07;;;;;;;104.25;98.93;;;8.50;99.90;;;;;;5079652;28;20047;-66
2023/04/28 07:30:33;;;;;;;83.45;78.82;;;8.50;99.90;;;;;;5074834;28;20051;-65
2023/04/28 07:32:59;;;;;;;99.32;94.18;;;8.50;99.90;;;;;;5076107;28;20040;-65
2023/04/28 07:35:25;;;;;;;84.85;80.60;;;8.50;99.90;;;;;;5080607;28;20435;-66
2023/04/28 07:37:51;;;;;;;88.20;83.43;;;8.60;99.90;;;;;;5078570;28;20047;-66
2023/04/28 07:40:18;;;;;;;91.30;86.65;;;8.70;99.90;;;;;;5079564;28;20044;-66
2023/04/28 07:42:43;;;;;;;91.78;87.22;;;8.80;99.90;;;;;;5083554;28;20051;-66
2023/04/28 07:45:11;;;;;;;81.97;77.53;;;8.90;99.90;;;;;;5065407;28;20056;-66
2023/04/28 07:47:36;;;;;;;58.60;55.10;;;9.20;99.90;;;;;;5069846;28;20048;-66
2023/04/28 07:50:05;;;;;;;68.60;64.68;;;9.50;99.90;;;;;;5084108;28;20044;-66
2023/04/28 07:52:31;;;;;;;49.83;46.45;;;9.80;99.90;;;;;;5078272;28;20119;-66
2023/04/28 07:54:58;;;;;;;46.22;43.03;;;10.00;99.90;;;;;;5078460;28;20051;-66
2023/04/28 07:57:23;;;;;;;43.45;40.33;;;9.90;99.90;;;;;;5062989;28;20779;-66
2023/04/28 07:59:49;;;;;;;45.25;41.92;;;9.90;99.90;;;;;;5081004;28;20049;-67
2023/04/28 08:02:15;;;;;;;42.72;39.80;;;9.80;99.90;;;;;;5067344;28;20082;-66
2023/04/28 08:04:41;;;;;;;46.53;43.17;;;9.60;99.90;;;;;;5082211;28;20613;-65
2023/04/28 08:07:08;;;;;;;43.85;40.85;;;9.50;99.90;;;;;;5088162;28;20460;-66
2023/04/28 08:09:34;;;;;;;55.15;51.60;;;9.40;99.90;;;;;;5076615;28;20065;-65
2023/04/28 08:12:00;;;;;;;59.90;56.15;;;9.30;99.90;;;;;;5078998;28;20192;-65
2023/04/28 08:14:26;;;;;;;63.88;59.90;;;9.30;99.90;;;;;;5063839;28;20130;-66
2023/04/28 08:16:52;;;;;;;48.10;44.70;;;9.30;99.90;;;;;;5086279;28;20123;-66
2023/04/28 08:19:18;;;;;;;53.17;49.47;;;9.40;99.90;;;;;;5084912;28;20491;-65
2023/04/28 08:21:43;;;;;;;50.35;46.95;;;9.40;99.90;;;;;;5075596;28;20046;-65
2023/04/28 08:24:09;;;;;;;61.15;57.35;;;9.40;99.90;;;;;;5083484;28;20071;-66
2023/04/28 08:26:36;;;;;;;70.43;66.45;;;9.30;99.90;;;;;;5077781;28;20131;-66
2023/04/28 08:29:02;;;;;;;71.70;67.50;;;9.30;99.90;;;;;;5083945;28;20445;-65
2023/04/28 08:31:28;;;;;;;76.80;72.70;;;9.30;99.90;;;;;;5085059;28;20449;-66
2023/04/28 08:33:53;;;;;;;80.68;76.43;;;9.30;99.90;;;;;;5085710;28;20031;-65
2023/04/28 08:36:20;;;;;;;72.00;67.82;;;9.30;99.90;;;;;;5090240;28;20051;-65
2023/04/28 08:38:46;;;;;;;79.25;74.63;;;9.20;99.90;;;;;;5081530;28;20047;-65
2023/04/28 08:41:15;;;;;;;79.13;74.55;;;9.10;99.90;;;;;;5075111;28;20063;-65
2023/04/28 08:43:42;;;;;;;85.15;80.55;;;9.10;99.90;;;;;;5080615;28;20470;-65
2023/04/28 08:46:08;;;;;;;86.00;81.43;;;9.20;99.90;;;;;;5077309;28;20115;-65
2023/04/28 08:48:43;;;;;;;84.93;80.50;;;9.30;99.90;;;;;;5068662;28;20614;-66
2023/04/28 08:51:14;;;;;;;88.82;84.03;;;9.50;99.90;;;;;;5083987;28;20081;-66
2023/04/28 08:53:48;;;;;;;89.07;84.28;;;9.60;99.90;;;;;;5062984;28;20078;-66
2023/04/28 08:56:15;;;;;;;64.47;60.67;;;9.90;99.90;;;;;;5084076;28;20109;-65
2023/04/28 08:58:41;;;;;;;81.93;77.50;;;10.20;99.90;;;;;;5087271;28;20044;-66
2023/04/28 09:01:08;;;;;;;78.38;74.15;;;10.40;99.90;;;;;;5088936;28;20120;-66
2023/04/28 09:03:33;;;;;;;68.15;63.95;;;10.70;99.90;;;;;;5081856;28;20040;-66
2023/04/28 09:06:01;;;;;;;57.65;54.03;;;10.80;99.90;;;;;;5067949;28;20055;-66
2023/04/28 09:08:27;;;;;;;50.55;47.22;;;11.00;99.90;;;;;;5083005;28;20044;-65
2023/04/28 09:11:09;;;;;;;41.33;38.15;;;11.10;99.90;;;;;;5085150;28;20127;-66
2023/04/28 09:13:36;;;;;;;42.05;39.08;;;11.00;99.90;;;;;;5079383;28;20083;-66
2023/04/28 09:16:02;;;;;;;41.83;38.72;;;11.10;99.90;;;;;;5079985;28;20044;-66
2023/04/28 09:18:31;;;;;;;43.88;40.67;;;11.20;99.90;;;;;;5085960;28;20044;-66
2023/04/28 09:21:09;;;;;;;43.60;40.58;;;11.30;99.90;;;;;;5071130;28;20051;-66
2023/04/28 09:23:49;;;;;;;43.20;40.08;;;11.30;99.90;;;;;;5082574;28;20040;-66
2023/04/28 09:26:15;;;;;;;43.20;40.10;;;11.30;99.90;;;;;;5079762;28;20527;-66
2023/04/28 09:28:41;;;;;;;37.75;34.92;;;11.30;99.90;;;;;;5084536;28;20043;-66
2023/04/28 09:31:26;;;;;;;38.38;35.55;;;11.50;99.90;;;;;;5083504;28;20040;-66
2023/04/28 09:33:59;;;;;;;34.42;31.95;;;11.70;99.90;;;;;;5079754;28;20085;-66
2023/04/28 09:36:29;;;;;;;39.40;36.50;;;12.10;99.90;;;;;;5086883;28;20365;-66
2023/04/28 09:38:58;;;;;;;38.92;36.13;;;12.30;99.90;;;;;;5088058;28;20054;-66
2023/04/28 09:41:34;;;;;;;38.78;35.92;;;12.50;99.90;;;;;;5080561;28;20039;-66
2023/04/28 09:44:09;;;;;;;40.05;37.28;;;12.50;99.90;;;;;;5082322;28;20089;-66
2023/04/28 09:46:35;;;;;;;45.75;42.85;;;12.90;99.90;;;;;;5076112;28;20125;-66
2023/04/28 09:49:01;;;;;;;40.65;37.55;;;13.30;99.90;;;;;;5077509;28;20082;-66
2023/04/28 09:51:27;;;;;;;42.35;39.35;;;13.60;99.90;;;;;;5084300;28;20141;-66
2023/04/28 09:53:55;;;;;;;42.20;39.50;;;13.80;99.90;;;;;;5080572;28;20133;-66
2023/04/28 09:56:24;;;;;;;35.67;33.22;;;13.90;99.90;;;;;;5083407;28;20051;-66
2023/04/28 09:58:52;;;;;;;41.88;38.92;;;13.90;99.90;;;;;;5088741;28;20043;-66
2023/04/28 10:01:18;;;;;;;40.67;38.00;;;13.70;99.90;;;;;;5082681;28;21071;-66
2023/04/28 10:03:45;;;;;;;39.10;36.10;;;13.50;99.90;;;;;;5069635;28;20040;-66
2023/04/28 10:06:10;;;;;;;38.28;35.45;;;13.40;99.90;;;;;;5082006;28;20040;-66
2023/04/28 10:08:36;;;;;;;37.92;35.13;;;13.20;99.90;;;;;;5076232;28;20488;-66
2023/04/28 10:11:02;;;;;;;37.25;34.58;;;13.10;99.90;;;;;;5080404;28;20036;-66
2023/04/28 10:13:29;;;;;;;41.13;38.13;;;12.90;99.90;;;;;;5083784;28;20055;-66
2023/04/28 10:15:54;;;;;;;40.78;37.83;;;12.80;99.90;;;;;;5076188;28;20048;-66
2023/04/28 10:18:22;;;;;;;43.45;40.38;;;12.80;99.90;;;;;;5088425;28;20048;-66
2023/04/28 10:20:52;;;;;;;32.05;29.45;;;12.80;99.90;;;;;;5085302;28;20352;-66
2023/04/28 10:23:46;;;;;;;40.33;37.40;;;12.80;99.90;;;;;;5081640;28;20399;-66
2023/04/28 10:26:13;;;;;;;45.22;42.22;;;13.00;99.90;;;;;;5077676;28;20156;-66
2023/04/28 10:28:50;;;;;;;33.40;30.67;;;13.20;99.90;;;;;;5077040;28;20558;-66
2023/04/28 10:31:17;;;;;;;47.15;44.03;;;13.30;99.90;;;;;;5086667;28;20051;-66
2023/04/28 10:33:43;;;;;;;42.92;39.88;;;13.50;99.90;;;;;;5078956;28;20052;-66
2023/04/28 10:36:10;;;;;;;44.75;41.85;;;13.60;99.90;;;;;;5070436;28;20456;-66
2023/04/28 10:39:08;;;;;;;41.70;39.03;;;13.60;99.90;;;;;;5081219;28;20044;-66
2023/04/28 10:41:34;;;;;;;39.10;36.38;;;13.60;99.90;;;;;;5092692;28;20031;-66
2023/04/28 10:44:00;;;;;;;36.20;33.42;;;13.50;99.90;;;;;;5083341;28;20085;-66
2023/04/28 10:46:25;;;;;;;44.55;41.42;;;13.50;99.90;;;;;;5069556;28;20391;-66
2023/04/28 10:48:53;;;;;;;43.20;40.22;;;13.50;99.90;;;;;;5083255;28;20047;-66
2023/04/28 10:51:18;;;;;;;36.33;33.53;;;13.50;99.90;;;;;;5083537;28;20048;-66
2023/04/28 10:53:44;;;;;;;43.63;40.58;;;13.60;99.90;;;;;;5084394;28;20048;-66
2023/04/28 10:56:15;;;;;;;40.10;37.50;;;13.60;99.90;;;;;;5080578;28;20055;-66
2023/04/28 10:58:44;;;;;;;37.33;34.53;;;13.40;99.90;;;;;;5075650;28;20446;-66
2023/04/28 11:01:33;;;;;;;48.08;44.78;;;13.30;99.90;;;;;;5068754;28;20495;-66
2023/04/28 11:06:35;;;;;;;32.15;29.63;;;13.10;99.90;;;;;;5085968;28;20442;-66
2023/04/28 11:09:23;;;;;;;36.47;33.95;;;13.10;99.90;;;;;;5082494;28;20589;-66
2023/04/28 11:12:10;;;;;;;32.65;30.05;;;13.10;99.90;;;;;;5081337;28;20503;-66
2023/04/28 11:14:39;;;;;;;43.70;40.90;;;13.20;99.90;;;;;;5062869;28;20067;-66
2023/04/28 11:17:07;;;;;;;38.28;35.58;;;13.30;99.90;;;;;;5074611;28;20056;-66
2023/04/28 11:19:36;;;;;;;43.03;40.10;;;13.30;99.90;;;;;;5079935;28;20043;-66
2023/04/28 11:22:17;;;;;;;40.10;37.38;;;13.20;99.90;;;;;;5081982;28;20039;-66
2023/04/28 11:24:57;;;;;;;44.92;41.95;;;13.20;99.90;;;;;;5066406;28;20044;-66
2023/04/28 11:27:24;;;;;;;35.42;32.35;;;13.20;99.90;;;;;;5073450;28;20060;-66
2023/04/28 11:29:49;;;;;;;42.15;39.40;;;13.30;99.90;;;;;;5069040;28;20090;-66
2023/04/28 11:32:15;;;;;;;43.65;40.75;;;13.40;99.90;;;;;;5068609;28;20096;-66
2023/04/28 11:34:41;;;;;;;33.03;30.02;;;13.60;99.90;;;;;;5087274;28;20554;-66
2023/04/28 11:37:08;;;;;;;38.13;35.45;;;13.70;99.90;;;;;;5060208;28;20049;-66
2023/04/28 11:39:34;;;;;;;42.45;39.67;;;13.90;99.90;;;;;;5067196;28;20071;-66
2023/04/28 11:42:01;;;;;;;42.35;39.35;;;13.90;99.90;;;;;;5067076;28;20483;-66
2023/04/28 11:44:30;;;;;;;41.00;38.15;;;13.80;99.90;;;;;;5075547;28;20156;-66
2023/04/28 11:47:01;;;;;;;49.55;46.47;;;13.80;99.90;;;;;;5041234;28;20041;-66
2023/04/28 11:49:29;;;;;;;49.15;45.97;;;13.70;99.90;;;;;;5070016;28;20036;-66
2023/04/28 11:52:04;;;;;;;53.55;50.25;;;13.70;99.90;;;;;;5066438;28;20075;-66
2023/04/28 11:54:31;;;;;;;51.47;48.35;;;13.80;99.90;;;;;;5069462;28;20043;-66
2023/04/28 11:56:57;;;;;;;52.53;49.17;;;13.80;99.90;;;;;;5067195;28;20396;-66
2023/04/28 11:59:29;;;;;;;42.92;40.17;;;13.70;99.90;;;;;;5072732;28;20444;-66
2023/04/28 12:02:00;;;;;;;51.22;48.08;;;13.70;99.90;;;;;;5064721;28;20090;-65
2023/04/28 12:04:43;;;;;;;50.08;46.63;;;13.70;99.90;;;;;;5058090;28;20048;-66
2023/04/28 12:07:17;;;;;;;47.85;44.85;;;13.80;99.90;;;;;;5058843;28;20044;-66
2023/04/28 12:09:43;;;;;;;50.08;46.72;;;13.80;99.90;;;;;;5060147;28;20562;-66
2023/04/28 12:12:11;;;;;;;50.28;46.97;;;13.70;99.90;;;;;;5086101;28;20052;-66
2023/04/28 12:15:06;;;;;;;40.30;37.40;;;13.60;99.90;;;;;;5066011;28;20130;-65
2023/04/28 12:17:38;;;;;;;44.33;41.42;;;13.60;99.90;;;;;;5071715;28;20118;-66
2023/04/28 12:20:11;;;;;;;40.17;37.58;;;13.60;99.90;;;;;;5072736;28;20055;-66
2023/04/28 12:22:45;;;;;;;33.92;31.45;;;13.60;99.90;;;;;;5058266;28;20128;-66
2023/04/28 12:25:12;;;;;;;34.92;32.42;;;13.60;99.90;;;;;;5066190;28;20471;-66
2023/04/28 12:27:39;;;;;;;33.80;31.50;;;13.50;99.90;;;;;;5083222;28;20051;-66
2023/04/28 12:30:23;;;;;;;28.50;25.95;;;13.50;99.90;;;;;;5102552;28;20040;-66
2023/04/28 12:32:50;;;;;;;28.07;25.67;;;13.30;99.90;;;;;;5078464;28;20555;-66
2023/04/28 12:35:16;;;;;;;35.72;33.33;;;13.30;99.90;;;;;;5060798;28;20430;-66